sensor_id;sensor_type;location;lat;lon;timestamp;P1;durP1;ratioP1;P2;durP2;ratioP2
11835;SDS011;5977;51.972;7.640;2023-03-01T00:01:41;129.13;;;43.63;;
11835;SDS011;5977;51.972;7.640;2023-03-01T00:04:08;129.73;;;43.80;;
11835;SDS011;5977;51.972;7.640;2023-03-01T00:06:36;129.60;;;43.70;;
11835;SDS011;5977;51.972;7.640;2023-03-01T00:09:04;129.50;;;43.80;;
11835;SDS011;5977;51.972;7.640;2023-03-01T00:11:32;130.50;;;44.13;;
11835;SDS011;5977;51.972;7.640;2023-03-01T00:14:02;129.60;;;43.77;;
11835;SDS011;5977;51.972;7.640;2023-03-01T00:16:33;130.10;;;43.97;;
11835;SDS011;5977;51.972;7.640;2023-03-01T00:19:05;130.20;;;44.03;;
11835;SDS011;5977;51.972;7.640;2023-03-01T00:21:34;130.00;;;43.93;;
11835;SDS011;5977;51.972;7.640;2023-03-01T00:24:02;129.87;;;43.87;;
11835;SDS011;5977;51.972;7.640;2023-03-01T00:26:30;130.10;;;44.00;;
11835;SDS011;5977;51.972;7.640;2023-03-01T00:28:58;129.60;;;43.80;;
11835;SDS011;5977;51.972;7.640;2023-03-01T00:31:29;129.73;;;44.00;;
11835;SDS011;5977;51.972;7.640;2023-03-01T00:33:59;129.60;;;43.73;;
11835;SDS011;5977;51.972;7.640;2023-03-01T00:36:29;129.50;;;43.90;;
11835;SDS011;5977;51.972;7.640;2023-03-01T00:38:58;128.93;;;43.57;;
11835;SDS011;5977;51.972;7.640;2023-03-01T00:41:26;129.30;;;43.73;;
11835;SDS011;5977;51.972;7.640;2023-03-01T00:43:54;129.60;;;43.80;;
11835;SDS011;5977;51.972;7.640;2023-03-01T00:46:24;128.67;;;43.40;;
11835;SDS011;5977;51.972;7.640;2023-03-01T00:48:54;129.30;;;43.77;;
11835;SDS011;5977;51.972;7.640;2023-03-01T00:51:23;129.27;;;43.80;;
11835;SDS011;5977;51.972;7.640;2023-03-01T00:53:52;128.87;;;43.53;;
11835;SDS011;5977;51.972;7.640;2023-03-01T00:56:22;128.57;;;43.60;;
11835;SDS011;5977;51.972;7.640;2023-03-01T00:58:51;129.20;;;43.73;;
11835;SDS011;5977;51.972;7.640;2023-03-01T01:01:19;129.47;;;43.80;;
11835;SDS011;5977;51.972;7.640;2023-03-01T01:03:49;128.80;;;43.67;;
11835;SDS011;5977;51.972;7.640;2023-03-01T01:06:21;128.83;;;43.67;;
11835;SDS011;5977;51.972;7.640;2023-03-01T01:08:51;128.70;;;43.60;;
11835;SDS011;5977;51.972;7.640;2023-03-01T01:11:21;128.43;;;43.50;;
11835;SDS011;5977;51.972;7.640;2023-03-01T01:13:50;128.97;;;43.60;;
11835;SDS011;5977;51.972;7.640;2023-03-01T01:16:21;128.77;;;43.70;;
11835;SDS011;5977;51.972;7.640;2023-03-01T01:18:50;128.40;;;43.50;;
11835;SDS011;5977;51.972;7.640;2023-03-01T01:21:19;128.07;;;43.40;;
11835;SDS011;5977;51.972;7.640;2023-03-01T01:23:50;128.70;;;43.63;;
11835;SDS011;5977;51.972;7.640;2023-03-01T01:26:20;128.77;;;43.60;;
11835;SDS011;5977;51.972;7.640;2023-03-01T01:28:49;128.63;;;43.60;;
11835;SDS011;5977;51.972;7.640;2023-03-01T01:31:17;128.37;;;43.60;;
11835;SDS011;5977;51.972;7.640;2023-03-01T01:33:46;128.57;;;43.50;;
11835;SDS011;5977;51.972;7.640;2023-03-01T01:36:14;128.47;;;43.47;;
11835;SDS011;5977;51.972;7.640;2023-03-01T01:38:43;128.63;;;43.67;;
11835;SDS011;5977;51.972;7.640;2023-03-01T01:41:11;128.47;;;43.60;;
11835;SDS011;5977;51.972;7.640;2023-03-01T01:43:41;128.40;;;43.60;;
11835;SDS011;5977;51.972;7.640;2023-03-01T01:46:14;128.80;;;43.70;;
11835;SDS011;5977;51.972;7.640;2023-03-01T01:48:56;128.73;;;43.80;;
11835;SDS011;5977;51.972;7.640;2023-03-01T01:51:29;128.40;;;43.50;;
11835;SDS011;5977;51.972;7.640;2023-03-01T01:54:07;128.57;;;43.63;;
11835;SDS011;5977;51.972;7.640;2023-03-01T01:56:39;128.60;;;43.60;;
11835;SDS011;5977;51.972;7.640;2023-03-01T01:59:09;128.13;;;43.40;;
11835;SDS011;5977;51.972;7.640;2023-03-01T02:01:39;127.47;;;43.23;;
11835;SDS011;5977;51.972;7.640;2023-03-01T02:04:07;128.33;;;43.50;;
11835;SDS011;5977;51.972;7.640;2023-03-01T02:06:36;129.03;;;43.90;;
11835;SDS011;5977;51.972;7.640;2023-03-01T02:09:10;128.60;;;43.63;;
11835;SDS011;5977;51.972;7.640;2023-03-01T02:11:41;128.27;;;43.53;;
11835;SDS011;5977;51.972;7.640;2023-03-01T02:14:09;128.20;;;43.53;;
11835;SDS011;5977;51.972;7.640;2023-03-01T02:16:38;128.43;;;43.53;;
11835;SDS011;5977;51.972;7.640;2023-03-01T02:19:06;127.83;;;43.47;;
11835;SDS011;5977;51.972;7.640;2023-03-01T02:21:37;128.47;;;43.63;;
11835;SDS011;5977;51.972;7.640;2023-03-01T02:24:13;128.13;;;43.53;;
11835;SDS011;5977;51.972;7.640;2023-03-01T02:26:53;127.77;;;43.33;;
11835;SDS011;5977;51.972;7.640;2023-03-01T02:29:25;127.63;;;43.40;;
11835;SDS011;5977;51.972;7.640;2023-03-01T02:31:56;127.60;;;43.30;;
11835;SDS011;5977;51.972;7.640;2023-03-01T02:34:25;128.20;;;43.50;;
11835;SDS011;5977;51.972;7.640;2023-03-01T02:36:56;128.13;;;43.67;;
11835;SDS011;5977;51.972;7.640;2023-03-01T02:39:28;128.00;;;43.57;;
11835;SDS011;5977;51.972;7.640;2023-03-01T02:41:59;127.97;;;43.53;;
11835;SDS011;5977;51.972;7.640;2023-03-01T02:44:29;127.33;;;43.20;;
11835;SDS011;5977;51.972;7.640;2023-03-01T02:46:57;128.23;;;43.60;;
11835;SDS011;5977;51.972;7.640;2023-03-01T02:49:30;127.53;;;43.37;;
11835;SDS011;5977;51.972;7.640;2023-03-01T02:52:09;127.80;;;43.47;;
11835;SDS011;5977;51.972;7.640;2023-03-01T02:54:56;127.33;;;43.30;;
11835;SDS011;5977;51.972;7.640;2023-03-01T02:57:28;127.37;;;43.27;;
11835;SDS011;5977;51.972;7.640;2023-03-01T03:00:02;127.00;;;43.20;;
11835;SDS011;5977;51.972;7.640;2023-03-01T03:02:35;127.87;;;43.57;;
11835;SDS011;5977;51.972;7.640;2023-03-01T03:05:16;127.13;;;43.23;;
11835;SDS011;5977;51.972;7.640;2023-03-01T03:07:45;127.47;;;43.43;;
11835;SDS011;5977;51.972;7.640;2023-03-01T03:10:16;127.63;;;43.50;;
11835;SDS011;5977;51.972;7.640;2023-03-01T03:12:48;127.10;;;43.23;;
11835;SDS011;5977;51.972;7.640;2023-03-01T03:15:19;126.90;;;43.20;;
11835;SDS011;5977;51.972;7.640;2023-03-01T03:17:47;127.40;;;43.43;;
11835;SDS011;5977;51.972;7.640;2023-03-01T03:20:16;127.50;;;43.40;;
11835;SDS011;5977;51.972;7.640;2023-03-01T03:22:46;127.40;;;43.40;;
11835;SDS011;5977;51.972;7.640;2023-03-01T03:25:15;126.80;;;43.27;;
11835;SDS011;5977;51.972;7.640;2023-03-01T03:27:44;127.57;;;43.50;;
11835;SDS011;5977;51.972;7.640;2023-03-01T03:30:14;126.50;;;43.10;;
11835;SDS011;5977;51.972;7.640;2023-03-01T03:32:45;127.20;;;43.37;;
11835;SDS011;5977;51.972;7.640;2023-03-01T03:35:18;127.40;;;43.47;;
11835;SDS011;5977;51.972;7.640;2023-03-01T03:37:47;126.93;;;43.30;;
11835;SDS011;5977;51.972;7.640;2023-03-01T03:40:32;127.73;;;43.50;;
11835;SDS011;5977;51.972;7.640;2023-03-01T03:43:01;126.73;;;43.23;;
11835;SDS011;5977;51.972;7.640;2023-03-01T03:45:30;127.10;;;43.40;;
11835;SDS011;5977;51.972;7.640;2023-03-01T03:48:01;127.33;;;43.40;;
11835;SDS011;5977;51.972;7.640;2023-03-01T03:50:30;127.70;;;43.60;;
11835;SDS011;5977;51.972;7.640;2023-03-01T03:52:59;127.53;;;43.50;;
11835;SDS011;5977;51.972;7.640;2023-03-01T03:55:28;127.43;;;43.47;;
11835;SDS011;5977;51.972;7.640;2023-03-01T03:57:57;127.73;;;43.60;;
11835;SDS011;5977;51.972;7.640;2023-03-01T04:00:28;126.80;;;43.17;;
11835;SDS011;5977;51.972;7.640;2023-03-01T04:02:56;127.40;;;43.43;;
11835;SDS011;5977;51.972;7.640;2023-03-01T04:05:25;127.13;;;43.27;;
11835;SDS011;5977;51.972;7.640;2023-03-01T04:07:53;127.93;;;43.53;;
11835;SDS011;5977;51.972;7.640;2023-03-01T04:10:29;128.17;;;43.57;;
11835;SDS011;5977;51.972;7.640;2023-03-01T04:12:58;128.77;;;43.67;;
11835;SDS011;5977;51.972;7.640;2023-03-01T04:15:26;128.90;;;43.73;;
11835;SDS011;5977;51.972;7.640;2023-03-01T04:17:54;129.10;;;43.77;;
11835;SDS011;5977;51.972;7.640;2023-03-01T04:20:23;130.50;;;44.13;;
11835;SDS011;5977;51.972;7.640;2023-03-01T04:22:57;129.80;;;43.90;;
11835;SDS011;5977;51.972;7.640;2023-03-01T04:25:26;129.90;;;44.00;;
11835;SDS011;5977;51.972;7.640;2023-03-01T04:27:56;129.70;;;43.90;;
11835;SDS011;5977;51.972;7.640;2023-03-01T04:30:24;130.10;;;44.00;;
11835;SDS011;5977;51.972;7.640;2023-03-01T04:32:52;130.70;;;44.20;;
11835;SDS011;5977;51.972;7.640;2023-03-01T04:35:20;130.43;;;44.10;;
11835;SDS011;5977;51.972;7.640;2023-03-01T04:37:49;130.57;;;44.13;;
11835;SDS011;5977;51.972;7.640;2023-03-01T04:40:17;131.00;;;44.30;;
11835;SDS011;5977;51.972;7.640;2023-03-01T04:42:45;130.40;;;44.07;;
11835;SDS011;5977;51.972;7.640;2023-03-01T04:45:13;129.70;;;43.83;;
11835;SDS011;5977;51.972;7.640;2023-03-01T04:47:41;131.10;;;44.30;;
11835;SDS011;5977;51.972;7.640;2023-03-01T04:50:11;130.27;;;44.03;;
11835;SDS011;5977;51.972;7.640;2023-03-01T04:52:40;129.93;;;43.90;;
11835;SDS011;5977;51.972;7.640;2023-03-01T04:55:10;130.37;;;44.07;;
11835;SDS011;5977;51.972;7.640;2023-03-01T04:57:38;129.73;;;43.77;;
11835;SDS011;5977;51.972;7.640;2023-03-01T05:00:07;130.27;;;44.03;;
11835;SDS011;5977;51.972;7.640;2023-03-01T05:02:47;129.73;;;44.00;;
11835;SDS011;5977;51.972;7.640;2023-03-01T05:05:24;129.60;;;43.87;;
11835;SDS011;5977;51.972;7.640;2023-03-01T05:07:54;130.40;;;44.13;;
11835;SDS011;5977;51.972;7.640;2023-03-01T05:10:25;129.73;;;43.90;;
11835;SDS011;5977;51.972;7.640;2023-03-01T05:12:56;130.07;;;44.03;;
11835;SDS011;5977;51.972;7.640;2023-03-01T05:15:24;130.80;;;44.30;;
11835;SDS011;5977;51.972;7.640;2023-03-01T05:17:53;129.97;;;44.00;;
11835;SDS011;5977;51.972;7.640;2023-03-01T05:20:21;129.63;;;43.87;;
11835;SDS011;5977;51.972;7.640;2023-03-01T05:22:50;130.00;;;44.00;;
11835;SDS011;5977;51.972;7.640;2023-03-01T05:25:18;129.97;;;44.00;;
11835;SDS011;5977;51.972;7.640;2023-03-01T05:27:48;130.13;;;43.97;;
11835;SDS011;5977;51.972;7.640;2023-03-01T05:30:16;130.20;;;43.93;;
11835;SDS011;5977;51.972;7.640;2023-03-01T05:32:45;130.77;;;44.30;;
11835;SDS011;5977;51.972;7.640;2023-03-01T05:35:15;130.13;;;44.00;;
11835;SDS011;5977;51.972;7.640;2023-03-01T05:37:45;130.33;;;44.07;;
11835;SDS011;5977;51.972;7.640;2023-03-01T05:40:16;130.07;;;43.90;;
11835;SDS011;5977;51.972;7.640;2023-03-01T05:42:46;130.60;;;44.20;;
11835;SDS011;5977;51.972;7.640;2023-03-01T05:45:16;130.47;;;44.17;;
11835;SDS011;5977;51.972;7.640;2023-03-01T05:47:45;131.00;;;44.37;;
11835;SDS011;5977;51.972;7.640;2023-03-01T05:50:15;130.67;;;44.27;;
11835;SDS011;5977;51.972;7.640;2023-03-01T05:52:46;130.60;;;44.13;;
11835;SDS011;5977;51.972;7.640;2023-03-01T05:55:15;131.47;;;44.40;;
11835;SDS011;5977;51.972;7.640;2023-03-01T05:57:44;131.23;;;44.30;;
11835;SDS011;5977;51.972;7.640;2023-03-01T06:00:13;131.43;;;44.37;;
11835;SDS011;5977;51.972;7.640;2023-03-01T06:02:43;130.77;;;44.10;;
11835;SDS011;5977;51.972;7.640;2023-03-01T06:05:12;130.80;;;44.10;;
11835;SDS011;5977;51.972;7.640;2023-03-01T06:07:41;130.87;;;44.13;;
11835;SDS011;5977;51.972;7.640;2023-03-01T06:10:09;130.40;;;44.00;;
11835;SDS011;5977;51.972;7.640;2023-03-01T06:12:39;131.00;;;44.20;;
11835;SDS011;5977;51.972;7.640;2023-03-01T06:15:08;130.87;;;44.17;;
11835;SDS011;5977;51.972;7.640;2023-03-01T06:17:38;130.90;;;44.20;;
11835;SDS011;5977;51.972;7.640;2023-03-01T06:20:09;131.10;;;44.30;;
11835;SDS011;5977;51.972;7.640;2023-03-01T06:22:39;130.80;;;44.20;;
11835;SDS011;5977;51.972;7.640;2023-03-01T06:25:08;131.07;;;44.33;;
11835;SDS011;5977;51.972;7.640;2023-03-01T06:27:37;130.37;;;44.10;;
11835;SDS011;5977;51.972;7.640;2023-03-01T06:30:05;130.40;;;44.10;;
11835;SDS011;5977;51.972;7.640;2023-03-01T06:32:34;130.60;;;44.13;;
11835;SDS011;5977;51.972;7.640;2023-03-01T06:35:02;130.17;;;44.07;;
11835;SDS011;5977;51.972;7.640;2023-03-01T06:37:32;129.50;;;43.77;;
11835;SDS011;5977;51.972;7.640;2023-03-01T06:40:01;129.90;;;43.93;;
11835;SDS011;5977;51.972;7.640;2023-03-01T06:42:34;130.07;;;43.93;;
11835;SDS011;5977;51.972;7.640;2023-03-01T06:45:02;130.37;;;43.93;;
11835;SDS011;5977;51.972;7.640;2023-03-01T06:47:31;131.07;;;44.33;;
11835;SDS011;5977;51.972;7.640;2023-03-01T06:49:59;129.67;;;43.87;;
11835;SDS011;5977;51.972;7.640;2023-03-01T06:52:27;129.80;;;44.10;;
11835;SDS011;5977;51.972;7.640;2023-03-01T06:54:56;129.60;;;44.00;;
11835;SDS011;5977;51.972;7.640;2023-03-01T06:57:24;129.73;;;43.97;;
11835;SDS011;5977;51.972;7.640;2023-03-01T06:59:52;129.53;;;43.90;;
11835;SDS011;5977;51.972;7.640;2023-03-01T07:02:20;128.97;;;43.77;;
11835;SDS011;5977;51.972;7.640;2023-03-01T07:04:48;128.30;;;43.63;;
11835;SDS011;5977;51.972;7.640;2023-03-01T07:07:16;126.60;;;43.17;;
11835;SDS011;5977;51.972;7.640;2023-03-01T07:09:45;125.77;;;42.93;;
11835;SDS011;5977;51.972;7.640;2023-03-01T07:12:14;125.37;;;42.90;;
11835;SDS011;5977;51.972;7.640;2023-03-01T07:14:43;124.20;;;42.60;;
11835;SDS011;5977;51.972;7.640;2023-03-01T07:17:11;123.93;;;42.67;;
11835;SDS011;5977;51.972;7.640;2023-03-01T07:19:39;123.63;;;42.60;;
11835;SDS011;5977;51.972;7.640;2023-03-01T07:22:07;123.00;;;42.40;;
11835;SDS011;5977;51.972;7.640;2023-03-01T07:24:35;122.57;;;42.27;;
11835;SDS011;5977;51.972;7.640;2023-03-01T07:27:03;122.87;;;42.33;;
11835;SDS011;5977;51.972;7.640;2023-03-01T07:29:32;122.23;;;42.30;;
11835;SDS011;5977;51.972;7.640;2023-03-01T07:32:02;122.13;;;42.20;;
11835;SDS011;5977;51.972;7.640;2023-03-01T07:34:31;122.90;;;42.60;;
11835;SDS011;5977;51.972;7.640;2023-03-01T07:36:59;121.83;;;42.30;;
11835;SDS011;5977;51.972;7.640;2023-03-01T07:39:27;122.07;;;42.30;;
11835;SDS011;5977;51.972;7.640;2023-03-01T07:41:55;122.83;;;42.63;;
11835;SDS011;5977;51.972;7.640;2023-03-01T07:44:23;122.07;;;42.30;;
11835;SDS011;5977;51.972;7.640;2023-03-01T07:46:52;122.17;;;42.40;;
11835;SDS011;5977;51.972;7.640;2023-03-01T07:49:22;122.20;;;42.40;;
11835;SDS011;5977;51.972;7.640;2023-03-01T07:51:50;122.60;;;42.50;;
11835;SDS011;5977;51.972;7.640;2023-03-01T07:54:18;123.67;;;42.63;;
11835;SDS011;5977;51.972;7.640;2023-03-01T07:56:46;125.20;;;43.20;;
11835;SDS011;5977;51.972;7.640;2023-03-01T07:59:13;126.50;;;43.30;;
11835;SDS011;5977;51.972;7.640;2023-03-01T08:01:41;127.00;;;43.43;;
11835;SDS011;5977;51.972;7.640;2023-03-01T08:04:10;128.27;;;43.57;;
11835;SDS011;5977;51.972;7.640;2023-03-01T08:06:38;129.43;;;44.00;;
11835;SDS011;5977;51.972;7.640;2023-03-01T08:09:06;129.57;;;44.00;;
11835;SDS011;5977;51.972;7.640;2023-03-01T08:11:34;129.03;;;43.77;;
11835;SDS011;5977;51.972;7.640;2023-03-01T08:14:02;130.07;;;44.10;;
11835;SDS011;5977;51.972;7.640;2023-03-01T08:16:30;130.37;;;44.17;;
11835;SDS011;5977;51.972;7.640;2023-03-01T08:19:03;130.90;;;44.23;;
11835;SDS011;5977;51.972;7.640;2023-03-01T08:21:32;131.37;;;44.40;;
11835;SDS011;5977;51.972;7.640;2023-03-01T08:24:01;131.87;;;44.47;;
11835;SDS011;5977;51.972;7.640;2023-03-01T08:26:29;131.73;;;44.40;;
11835;SDS011;5977;51.972;7.640;2023-03-01T08:28:58;133.00;;;44.80;;
11835;SDS011;5977;51.972;7.640;2023-03-01T08:31:27;132.87;;;44.70;;
11835;SDS011;5977;51.972;7.640;2023-03-01T08:33:58;133.37;;;44.90;;
11835;SDS011;5977;51.972;7.640;2023-03-01T08:36:27;133.43;;;44.87;;
11835;SDS011;5977;51.972;7.640;2023-03-01T08:38:58;133.10;;;44.70;;
11835;SDS011;5977;51.972;7.640;2023-03-01T08:41:26;133.87;;;44.93;;
11835;SDS011;5977;51.972;7.640;2023-03-01T08:43:54;133.93;;;44.77;;
11835;SDS011;5977;51.972;7.640;2023-03-01T08:46:25;134.17;;;44.80;;
11835;SDS011;5977;51.972;7.640;2023-03-01T08:48:53;134.67;;;45.10;;
11835;SDS011;5977;51.972;7.640;2023-03-01T08:51:22;134.93;;;45.17;;
11835;SDS011;5977;51.972;7.640;2023-03-01T08:53:50;135.00;;;45.03;;
11835;SDS011;5977;51.972;7.640;2023-03-01T08:56:20;135.73;;;45.27;;
11835;SDS011;5977;51.972;7.640;2023-03-01T08:58:48;136.10;;;45.40;;
11835;SDS011;5977;51.972;7.640;2023-03-01T09:01:17;136.17;;;45.30;;
11835;SDS011;5977;51.972;7.640;2023-03-01T09:03:46;136.43;;;45.43;;
11835;SDS011;5977;51.972;7.640;2023-03-01T09:06:14;135.33;;;44.97;;
11835;SDS011;5977;51.972;7.640;2023-03-01T09:08:44;136.07;;;45.27;;
11835;SDS011;5977;51.972;7.640;2023-03-01T09:11:14;136.43;;;45.43;;
11835;SDS011;5977;51.972;7.640;2023-03-01T09:13:46;135.47;;;45.00;;
11835;SDS011;5977;51.972;7.640;2023-03-01T09:16:15;135.83;;;45.20;;
11835;SDS011;5977;51.972;7.640;2023-03-01T09:18:44;136.00;;;45.33;;
11835;SDS011;5977;51.972;7.640;2023-03-01T09:21:15;136.03;;;45.37;;
11835;SDS011;5977;51.972;7.640;2023-03-01T09:23:55;135.27;;;45.00;;
11835;SDS011;5977;51.972;7.640;2023-03-01T09:26:24;135.07;;;44.93;;
11835;SDS011;5977;51.972;7.640;2023-03-01T09:28:54;135.40;;;45.07;;
11835;SDS011;5977;51.972;7.640;2023-03-01T09:31:23;134.93;;;44.87;;
11835;SDS011;5977;51.972;7.640;2023-03-01T09:33:52;136.30;;;45.50;;
11835;SDS011;5977;51.972;7.640;2023-03-01T09:36:21;136.27;;;45.30;;
11835;SDS011;5977;51.972;7.640;2023-03-01T09:38:51;136.80;;;45.27;;
11835;SDS011;5977;51.972;7.640;2023-03-01T09:41:31;136.87;;;45.37;;
11835;SDS011;5977;51.972;7.640;2023-03-01T09:44:10;136.47;;;45.27;;
11835;SDS011;5977;51.972;7.640;2023-03-01T09:46:47;137.20;;;45.63;;
11835;SDS011;5977;51.972;7.640;2023-03-01T09:49:17;137.77;;;45.73;;
11835;SDS011;5977;51.972;7.640;2023-03-01T09:51:50;137.70;;;45.70;;
11835;SDS011;5977;51.972;7.640;2023-03-01T09:54:23;136.90;;;45.37;;
11835;SDS011;5977;51.972;7.640;2023-03-01T09:56:58;137.10;;;45.53;;
11835;SDS011;5977;51.972;7.640;2023-03-01T09:59:36;137.20;;;45.50;;
11835;SDS011;5977;51.972;7.640;2023-03-01T10:02:27;136.90;;;45.47;;
11835;SDS011;5977;51.972;7.640;2023-03-01T10:05:03;138.57;;;46.07;;
11835;SDS011;5977;51.972;7.640;2023-03-01T10:07:43;137.63;;;45.40;;
11835;SDS011;5977;51.972;7.640;2023-03-01T10:10:23;137.13;;;45.40;;
11835;SDS011;5977;51.972;7.640;2023-03-01T10:12:55;137.10;;;45.50;;
11835;SDS011;5977;51.972;7.640;2023-03-01T10:15:30;137.50;;;45.53;;
11835;SDS011;5977;51.972;7.640;2023-03-01T10:18:03;136.53;;;45.20;;
11835;SDS011;5977;51.972;7.640;2023-03-01T10:20:40;136.63;;;45.33;;
11835;SDS011;5977;51.972;7.640;2023-03-01T10:23:13;136.17;;;45.40;;
11835;SDS011;5977;51.972;7.640;2023-03-01T10:25:47;135.37;;;45.07;;
11835;SDS011;5977;51.972;7.640;2023-03-01T10:28:25;135.80;;;45.20;;
11835;SDS011;5977;51.972;7.640;2023-03-01T10:30:58;135.07;;;44.97;;
11835;SDS011;5977;51.972;7.640;2023-03-01T10:33:27;135.43;;;45.07;;
11835;SDS011;5977;51.972;7.640;2023-03-01T10:35:58;135.50;;;44.97;;
11835;SDS011;5977;51.972;7.640;2023-03-01T10:38:26;135.67;;;45.13;;
11835;SDS011;5977;51.972;7.640;2023-03-01T10:40:57;136.30;;;45.27;;
11835;SDS011;5977;51.972;7.640;2023-03-01T10:43:29;136.97;;;45.47;;
11835;SDS011;5977;51.972;7.640;2023-03-01T10:46:22;136.40;;;45.37;;
11835;SDS011;5977;51.972;7.640;2023-03-01T10:49:12;135.27;;;45.00;;
11835;SDS011;5977;51.972;7.640;2023-03-01T10:51:42;135.13;;;45.03;;
11835;SDS011;5977;51.972;7.640;2023-03-01T10:54:16;134.97;;;44.97;;
11835;SDS011;5977;51.972;7.640;2023-03-01T10:56:46;134.63;;;44.87;;
11835;SDS011;5977;51.972;7.640;2023-03-01T10:59:22;135.47;;;45.00;;
11835;SDS011;5977;51.972;7.640;2023-03-01T11:02:04;135.50;;;45.07;;
11835;SDS011;5977;51.972;7.640;2023-03-01T11:04:57;135.67;;;45.10;;
11835;SDS011;5977;51.972;7.640;2023-03-01T11:07:27;136.03;;;45.30;;
11835;SDS011;5977;51.972;7.640;2023-03-01T11:09:55;136.47;;;45.40;;
11835;SDS011;5977;51.972;7.640;2023-03-01T11:12:23;136.03;;;45.27;;
11835;SDS011;5977;51.972;7.640;2023-03-01T11:14:54;135.70;;;45.10;;
11835;SDS011;5977;51.972;7.640;2023-03-01T11:17:24;136.63;;;45.47;;
11835;SDS011;5977;51.972;7.640;2023-03-01T11:20:02;135.43;;;45.03;;
11835;SDS011;5977;51.972;7.640;2023-03-01T11:22:33;136.30;;;45.40;;
11835;SDS011;5977;51.972;7.640;2023-03-01T11:25:03;136.07;;;45.37;;
11835;SDS011;5977;51.972;7.640;2023-03-01T11:27:36;136.23;;;45.30;;
11835;SDS011;5977;51.972;7.640;2023-03-01T11:30:13;135.93;;;45.20;;
11835;SDS011;5977;51.972;7.640;2023-03-01T11:32:51;135.53;;;45.13;;
11835;SDS011;5977;51.972;7.640;2023-03-01T11:35:27;135.40;;;45.17;;
11835;SDS011;5977;51.972;7.640;2023-03-01T11:38:02;135.40;;;44.93;;
11835;SDS011;5977;51.972;7.640;2023-03-01T11:40:39;134.83;;;44.77;;
11835;SDS011;5977;51.972;7.640;2023-03-01T11:43:11;135.83;;;45.27;;
11835;SDS011;5977;51.972;7.640;2023-03-01T11:45:54;135.53;;;45.20;;
11835;SDS011;5977;51.972;7.640;2023-03-01T11:48:42;134.97;;;44.97;;
11835;SDS011;5977;51.972;7.640;2023-03-01T11:51:24;135.03;;;45.07;;
11835;SDS011;5977;51.972;7.640;2023-03-01T11:54:03;134.53;;;44.80;;
11835;SDS011;5977;51.972;7.640;2023-03-01T11:56:38;134.23;;;44.70;;
11835;SDS011;5977;51.972;7.640;2023-03-01T12:02:16;134.23;;;44.70;;
11835;SDS011;5977;51.972;7.640;2023-03-01T12:05:14;133.90;;;44.67;;
11835;SDS011;5977;51.972;7.640;2023-03-01T12:07:53;134.03;;;44.80;;
11835;SDS011;5977;51.972;7.640;2023-03-01T12:10:27;133.70;;;44.57;;
11835;SDS011;5977;51.972;7.640;2023-03-01T12:15:53;133.43;;;44.67;;
11835;SDS011;5977;51.972;7.640;2023-03-01T12:18:36;133.53;;;44.57;;
11835;SDS011;5977;51.972;7.640;2023-03-01T12:21:20;132.90;;;44.40;;
11835;SDS011;5977;51.972;7.640;2023-03-01T12:26:51;132.60;;;44.40;;
11835;SDS011;5977;51.972;7.640;2023-03-01T12:29:29;133.10;;;44.43;;
11835;SDS011;5977;51.972;7.640;2023-03-01T12:32:13;133.53;;;44.70;;
11835;SDS011;5977;51.972;7.640;2023-03-01T12:34:53;133.07;;;44.53;;
11835;SDS011;5977;51.972;7.640;2023-03-01T12:37:42;133.17;;;44.50;;
11835;SDS011;5977;51.972;7.640;2023-03-01T12:43:17;133.20;;;44.50;;
11835;SDS011;5977;51.972;7.640;2023-03-01T12:45:57;133.33;;;44.60;;
11835;SDS011;5977;51.972;7.640;2023-03-01T12:48:39;132.97;;;44.50;;
11835;SDS011;5977;51.972;7.640;2023-03-01T12:51:14;133.03;;;44.50;;
11835;SDS011;5977;51.972;7.640;2023-03-01T12:53:48;133.03;;;44.53;;
11835;SDS011;5977;51.972;7.640;2023-03-01T12:56:17;133.50;;;44.70;;
11835;SDS011;5977;51.972;7.640;2023-03-01T12:58:51;132.87;;;44.50;;
11835;SDS011;5977;51.972;7.640;2023-03-01T13:01:27;132.90;;;44.57;;
11835;SDS011;5977;51.972;7.640;2023-03-01T13:04:07;133.03;;;44.57;;
11835;SDS011;5977;51.972;7.640;2023-03-01T13:06:47;132.93;;;44.53;;
11835;SDS011;5977;51.972;7.640;2023-03-01T13:09:35;133.23;;;44.60;;
11835;SDS011;5977;51.972;7.640;2023-03-01T13:15:24;132.73;;;44.27;;
11835;SDS011;5977;51.972;7.640;2023-03-01T13:17:57;132.47;;;44.40;;
11835;SDS011;5977;51.972;7.640;2023-03-01T13:20:27;132.90;;;44.50;;
11835;SDS011;5977;51.972;7.640;2023-03-01T13:23:03;133.00;;;44.57;;
11835;SDS011;5977;51.972;7.640;2023-03-01T13:25:35;132.13;;;44.37;;
11835;SDS011;5977;51.972;7.640;2023-03-01T13:37:18;132.17;;;44.30;;
11835;SDS011;5977;51.972;7.640;2023-03-01T13:39:49;132.10;;;44.20;;
11835;SDS011;5977;51.972;7.640;2023-03-01T13:45:17;131.83;;;44.10;;
11835;SDS011;5977;51.972;7.640;2023-03-01T13:47:49;131.90;;;44.20;;
11835;SDS011;5977;51.972;7.640;2023-03-01T13:50:24;131.37;;;44.07;;
11835;SDS011;5977;51.972;7.640;2023-03-01T13:52:56;132.03;;;44.20;;
11835;SDS011;5977;51.972;7.640;2023-03-01T13:55:29;132.00;;;44.23;;
11835;SDS011;5977;51.972;7.640;2023-03-01T13:58:13;132.13;;;44.23;;
11835;SDS011;5977;51.972;7.640;2023-03-01T14:00:45;131.93;;;44.10;;
11835;SDS011;5977;51.972;7.640;2023-03-01T14:03:14;132.23;;;44.40;;
11835;SDS011;5977;51.972;7.640;2023-03-01T14:05:56;132.37;;;44.30;;
11835;SDS011;5977;51.972;7.640;2023-03-01T14:08:40;132.73;;;44.60;;
11835;SDS011;5977;51.972;7.640;2023-03-01T14:11:24;132.30;;;44.30;;
11835;SDS011;5977;51.972;7.640;2023-03-01T14:14:17;132.23;;;44.47;;
11835;SDS011;5977;51.972;7.640;2023-03-01T14:17:00;132.77;;;44.60;;
11835;SDS011;5977;51.972;7.640;2023-03-01T14:19:39;133.03;;;44.60;;
11835;SDS011;5977;51.972;7.640;2023-03-01T14:22:21;132.67;;;44.60;;
11835;SDS011;5977;51.972;7.640;2023-03-01T14:24:51;132.30;;;44.47;;
11835;SDS011;5977;51.972;7.640;2023-03-01T14:27:22;132.63;;;44.47;;
11835;SDS011;5977;51.972;7.640;2023-03-01T14:29:57;132.17;;;44.37;;
11835;SDS011;5977;51.972;7.640;2023-03-01T14:32:28;132.10;;;44.30;;
11835;SDS011;5977;51.972;7.640;2023-03-01T14:34:58;132.30;;;44.40;;
11835;SDS011;5977;51.972;7.640;2023-03-01T14:37:27;131.83;;;44.20;;
11835;SDS011;5977;51.972;7.640;2023-03-01T14:39:57;132.40;;;44.43;;
11835;SDS011;5977;51.972;7.640;2023-03-01T14:42:27;132.90;;;44.50;;
11835;SDS011;5977;51.972;7.640;2023-03-01T14:44:59;132.17;;;44.30;;
11835;SDS011;5977;51.972;7.640;2023-03-01T14:47:29;132.03;;;44.37;;
11835;SDS011;5977;51.972;7.640;2023-03-01T14:49:59;132.37;;;44.43;;
11835;SDS011;5977;51.972;7.640;2023-03-01T14:52:34;132.43;;;44.43;;
11835;SDS011;5977;51.972;7.640;2023-03-01T14:55:04;132.87;;;44.60;;
11835;SDS011;5977;51.972;7.640;2023-03-01T14:57:34;131.97;;;44.23;;
11835;SDS011;5977;51.972;7.640;2023-03-01T15:00:05;132.10;;;44.30;;
11835;SDS011;5977;51.972;7.640;2023-03-01T15:02:34;132.23;;;44.13;;
11835;SDS011;5977;51.972;7.640;2023-03-01T15:05:03;132.33;;;44.47;;
11835;SDS011;5977;51.972;7.640;2023-03-01T15:07:35;131.97;;;44.40;;
11835;SDS011;5977;51.972;7.640;2023-03-01T15:10:07;131.37;;;44.20;;
11835;SDS011;5977;51.972;7.640;2023-03-01T15:12:44;131.57;;;44.20;;
11835;SDS011;5977;51.972;7.640;2023-03-01T15:18:13;131.43;;;44.03;;